sensor_id;sensor_type;location;lat;lon;timestamp;P1;durP1;ratioP1;P2;durP2;ratioP2
10041;SDS011;5061;49.068;12.058;2024-02-21T00:00:10;6.47;;;2.07;;
10041;SDS011;5061;49.068;12.058;2024-02-21T00:03:31;9.63;;;3.07;;
10041;SDS011;5061;49.068;12.058;2024-02-21T00:06:52;7.80;;;2.30;;
10041;SDS011;5061;49.068;12.058;2024-02-21T00:10:12;5.50;;;2.37;;
10041;SDS011;5061;49.068;12.058;2024-02-21T00:13:33;3.10;;;1.73;;
10041;SDS011;5061;49.068;12.058;2024-02-21T00:16:54;4.40;;;2.20;;
10041;SDS011;5061;49.068;12.058;2024-02-21T00:20:14;4.13;;;2.57;;
10041;SDS011;5061;49.068;12.058;2024-02-21T00:23:35;5.37;;;2.40;;
10041;SDS011;5061;49.068;12.058;2024-02-21T00:26:56;6.33;;;2.00;;
10041;SDS011;5061;49.068;12.058;2024-02-21T00:30:16;6.47;;;2.90;;
10041;SDS011;5061;49.068;12.058;2024-02-21T00:33:37;8.23;;;2.60;;
10041;SDS011;5061;49.068;12.058;2024-02-21T00:36:57;5.87;;;2.60;;
10041;SDS011;5061;49.068;12.058;2024-02-21T00:40:18;8.53;;;2.60;;
10041;SDS011;5061;49.068;12.058;2024-02-21T00:43:41;6.60;;;2.53;;
10041;SDS011;5061;49.068;12.058;2024-02-21T00:47:02;5.13;;;2.77;;
10041;SDS011;5061;49.068;12.058;2024-02-21T00:50:22;8.03;;;2.77;;
10041;SDS011;5061;49.068;12.058;2024-02-21T00:53:43;8.23;;;2.60;;
10041;SDS011;5061;49.068;12.058;2024-02-21T00:57:04;7.83;;;2.67;;
10041;SDS011;5061;49.068;12.058;2024-02-21T01:00:24;12.20;;;3.23;;
10041;SDS011;5061;49.068;12.058;2024-02-21T01:03:45;13.53;;;3.73;;
10041;SDS011;5061;49.068;12.058;2024-02-21T01:07:06;6.80;;;2.70;;
10041;SDS011;5061;49.068;12.058;2024-02-21T01:10:26;9.13;;;2.60;;
10041;SDS011;5061;49.068;12.058;2024-02-21T01:13:47;8.00;;;2.23;;
10041;SDS011;5061;49.068;12.058;2024-02-21T01:17:07;5.70;;;2.00;;
10041;SDS011;5061;49.068;12.058;2024-02-21T01:20:28;4.63;;;1.97;;
10041;SDS011;5061;49.068;12.058;2024-02-21T01:23:49;1.87;;;1.50;;
10041;SDS011;5061;49.068;12.058;2024-02-21T01:27:09;1.90;;;1.47;;
10041;SDS011;5061;49.068;12.058;2024-02-21T01:30:30;2.07;;;1.50;;
10041;SDS011;5061;49.068;12.058;2024-02-21T01:33:50;1.40;;;1.30;;
10041;SDS011;5061;49.068;12.058;2024-02-21T01:37:11;4.60;;;2.10;;
10041;SDS011;5061;49.068;12.058;2024-02-21T01:40:31;2.30;;;1.73;;
10041;SDS011;5061;49.068;12.058;2024-02-21T01:43:52;3.00;;;1.77;;
10041;SDS011;5061;49.068;12.058;2024-02-21T01:47:13;5.13;;;1.80;;
10041;SDS011;5061;49.068;12.058;2024-02-21T01:50:34;8.07;;;2.40;;
10041;SDS011;5061;49.068;12.058;2024-02-21T01:53:56;3.17;;;2.17;;
10041;SDS011;5061;49.068;12.058;2024-02-21T01:57:17;2.00;;;1.80;;
10041;SDS011;5061;49.068;12.058;2024-02-21T02:00:38;3.30;;;1.70;;
10041;SDS011;5061;49.068;12.058;2024-02-21T02:04:02;3.90;;;1.80;;
10041;SDS011;5061;49.068;12.058;2024-02-21T02:07:25;7.43;;;3.23;;
10041;SDS011;5061;49.068;12.058;2024-02-21T02:10:45;5.40;;;2.30;;
10041;SDS011;5061;49.068;12.058;2024-02-21T02:14:06;3.77;;;1.90;;
10041;SDS011;5061;49.068;12.058;2024-02-21T02:17:26;2.27;;;2.00;;
10041;SDS011;5061;49.068;12.058;2024-02-21T02:20:47;3.10;;;2.10;;
10041;SDS011;5061;49.068;12.058;2024-02-21T02:24:08;9.13;;;2.60;;
10041;SDS011;5061;49.068;12.058;2024-02-21T02:27:29;7.07;;;2.33;;
10041;SDS011;5061;49.068;12.058;2024-02-21T02:30:49;5.23;;;2.50;;
10041;SDS011;5061;49.068;12.058;2024-02-21T02:34:10;3.10;;;2.23;;
10041;SDS011;5061;49.068;12.058;2024-02-21T02:37:31;4.67;;;2.57;;
10041;SDS011;5061;49.068;12.058;2024-02-21T02:40:51;7.13;;;2.40;;
10041;SDS011;5061;49.068;12.058;2024-02-21T02:44:12;3.63;;;2.40;;
10041;SDS011;5061;49.068;12.058;2024-02-21T02:47:33;4.10;;;2.57;;
10041;SDS011;5061;49.068;12.058;2024-02-21T02:50:54;4.90;;;2.30;;
10041;SDS011;5061;49.068;12.058;2024-02-21T02:54:15;5.67;;;2.27;;
10041;SDS011;5061;49.068;12.058;2024-02-21T02:57:36;5.53;;;2.13;;
10041;SDS011;5061;49.068;12.058;2024-02-21T03:00:56;5.83;;;2.90;;
10041;SDS011;5061;49.068;12.058;2024-02-21T03:04:17;8.53;;;3.40;;
10041;SDS011;5061;49.068;12.058;2024-02-21T03:07:37;6.50;;;3.17;;
10041;SDS011;5061;49.068;12.058;2024-02-21T03:10:58;9.53;;;3.10;;
10041;SDS011;5061;49.068;12.058;2024-02-21T03:14:19;5.83;;;3.40;;
10041;SDS011;5061;49.068;12.058;2024-02-21T03:17:40;12.60;;;4.20;;
10041;SDS011;5061;49.068;12.058;2024-02-21T03:21:01;6.03;;;3.40;;
10041;SDS011;5061;49.068;12.058;2024-02-21T03:24:22;11.23;;;3.20;;
10041;SDS011;5061;49.068;12.058;2024-02-21T03:27:43;7.20;;;3.30;;
10041;SDS011;5061;49.068;12.058;2024-02-21T03:31:03;13.23;;;3.47;;
10041;SDS011;5061;49.068;12.058;2024-02-21T03:34:24;7.17;;;3.27;;
10041;SDS011;5061;49.068;12.058;2024-02-21T03:37:45;5.17;;;2.40;;
10041;SDS011;5061;49.068;12.058;2024-02-21T03:41:06;6.37;;;2.53;;
10041;SDS011;5061;49.068;12.058;2024-02-21T03:44:26;8.97;;;3.20;;
10041;SDS011;5061;49.068;12.058;2024-02-21T03:47:47;5.30;;;2.80;;
10041;SDS011;5061;49.068;12.058;2024-02-21T03:51:07;4.00;;;2.53;;
10041;SDS011;5061;49.068;12.058;2024-02-21T03:54:28;5.37;;;2.37;;
10041;SDS011;5061;49.068;12.058;2024-02-21T03:57:48;9.43;;;3.37;;
10041;SDS011;5061;49.068;12.058;2024-02-21T04:01:09;3.17;;;2.40;;
10041;SDS011;5061;49.068;12.058;2024-02-21T04:04:30;6.23;;;2.67;;
10041;SDS011;5061;49.068;12.058;2024-02-21T04:07:50;10.47;;;2.73;;
10041;SDS011;5061;49.068;12.058;2024-02-21T04:11:11;8.40;;;2.50;;
10041;SDS011;5061;49.068;12.058;2024-02-21T04:14:32;7.50;;;2.33;;
10041;SDS011;5061;49.068;12.058;2024-02-21T04:17:53;6.17;;;2.47;;
10041;SDS011;5061;49.068;12.058;2024-02-21T04:21:16;3.57;;;2.37;;
10041;SDS011;5061;49.068;12.058;2024-02-21T04:24:37;4.63;;;2.07;;
10041;SDS011;5061;49.068;12.058;2024-02-21T04:27:58;6.43;;;2.17;;
10041;SDS011;5061;49.068;12.058;2024-02-21T04:31:18;8.17;;;3.40;;
10041;SDS011;5061;49.068;12.058;2024-02-21T04:34:40;5.20;;;2.20;;
10041;SDS011;5061;49.068;12.058;2024-02-21T04:38:01;5.27;;;2.70;;
10041;SDS011;5061;49.068;12.058;2024-02-21T04:41:22;5.33;;;2.00;;
10041;SDS011;5061;49.068;12.058;2024-02-21T04:44:42;7.60;;;2.50;;
10041;SDS011;5061;49.068;12.058;2024-02-21T04:48:03;6.53;;;2.70;;
10041;SDS011;5061;49.068;12.058;2024-02-21T04:51:24;7.93;;;2.83;;
10041;SDS011;5061;49.068;12.058;2024-02-21T04:54:45;6.23;;;3.00;;
10041;SDS011;5061;49.068;12.058;2024-02-21T04:58:05;4.63;;;2.20;;
10041;SDS011;5061;49.068;12.058;2024-02-21T05:01:26;5.93;;;2.60;;
10041;SDS011;5061;49.068;12.058;2024-02-21T05:04:48;6.70;;;2.30;;
10041;SDS011;5061;49.068;12.058;2024-02-21T05:08:09;7.43;;;2.63;;
10041;SDS011;5061;49.068;12.058;2024-02-21T05:11:30;6.93;;;3.00;;
10041;SDS011;5061;49.068;12.058;2024-02-21T05:14:51;3.03;;;2.00;;
10041;SDS011;5061;49.068;12.058;2024-02-21T05:18:13;4.50;;;1.50;;
10041;SDS011;5061;49.068;12.058;2024-02-21T05:21:33;2.17;;;1.50;;
10041;SDS011;5061;49.068;12.058;2024-02-21T05:24:54;3.40;;;1.40;;
10041;SDS011;5061;49.068;12.058;2024-02-21T05:28:16;2.90;;;1.80;;
10041;SDS011;5061;49.068;12.058;2024-02-21T05:35:12;2.53;;;1.57;;
10041;SDS011;5061;49.068;12.058;2024-02-21T05:38:33;1.53;;;1.33;;
10041;SDS011;5061;49.068;12.058;2024-02-21T05:41:55;4.33;;;1.90;;
10041;SDS011;5061;49.068;12.058;2024-02-21T05:45:16;4.97;;;2.37;;
10041;SDS011;5061;49.068;12.058;2024-02-21T05:48:36;2.33;;;1.80;;
10041;SDS011;5061;49.068;12.058;2024-02-21T05:51:57;6.90;;;1.70;;
10041;SDS011;5061;49.068;12.058;2024-02-21T05:55:17;2.07;;;1.63;;
10041;SDS011;5061;49.068;12.058;2024-02-21T05:58:38;3.03;;;1.80;;
10041;SDS011;5061;49.068;12.058;2024-02-21T06:01:59;2.70;;;1.70;;
10041;SDS011;5061;49.068;12.058;2024-02-21T06:05:19;5.30;;;1.87;;
10041;SDS011;5061;49.068;12.058;2024-02-21T06:08:40;3.37;;;1.70;;
10041;SDS011;5061;49.068;12.058;2024-02-21T06:12:01;6.83;;;1.67;;
10041;SDS011;5061;49.068;12.058;2024-02-21T06:15:22;3.03;;;2.33;;
10041;SDS011;5061;49.068;12.058;2024-02-21T06:18:43;4.60;;;1.50;;
10041;SDS011;5061;49.068;12.058;2024-02-21T06:22:03;4.10;;;2.40;;
10041;SDS011;5061;49.068;12.058;2024-02-21T06:25:27;6.67;;;2.53;;
10041;SDS011;5061;49.068;12.058;2024-02-21T06:28:48;8.80;;;3.30;;
10041;SDS011;5061;49.068;12.058;2024-02-21T06:32:09;8.40;;;2.70;;
10041;SDS011;5061;49.068;12.058;2024-02-21T06:35:29;5.83;;;2.73;;
10041;SDS011;5061;49.068;12.058;2024-02-21T06:38:50;5.10;;;2.57;;
10041;SDS011;5061;49.068;12.058;2024-02-21T06:42:10;6.67;;;2.37;;
10041;SDS011;5061;49.068;12.058;2024-02-21T06:45:31;8.90;;;2.10;;
10041;SDS011;5061;49.068;12.058;2024-02-21T06:48:52;5.50;;;2.50;;
10041;SDS011;5061;49.068;12.058;2024-02-21T06:52:12;7.80;;;2.47;;
10041;SDS011;5061;49.068;12.058;2024-02-21T06:55:36;4.60;;;1.73;;
10041;SDS011;5061;49.068;12.058;2024-02-21T06:58:57;5.30;;;2.13;;
10041;SDS011;5061;49.068;12.058;2024-02-21T07:02:17;2.80;;;1.90;;
10041;SDS011;5061;49.068;12.058;2024-02-21T07:05:38;2.87;;;1.87;;
10041;SDS011;5061;49.068;12.058;2024-02-21T07:08:59;2.13;;;1.50;;
10041;SDS011;5061;49.068;12.058;2024-02-21T07:12:19;1.50;;;1.40;;
10041;SDS011;5061;49.068;12.058;2024-02-21T07:15:40;3.87;;;1.40;;
10041;SDS011;5061;49.068;12.058;2024-02-21T07:19:01;2.80;;;1.63;;
10041;SDS011;5061;49.068;12.058;2024-02-21T07:22:22;3.00;;;1.80;;
10041;SDS011;5061;49.068;12.058;2024-02-21T07:25:43;8.23;;;1.70;;
10041;SDS011;5061;49.068;12.058;2024-02-21T07:29:04;4.00;;;2.30;;
10041;SDS011;5061;49.068;12.058;2024-02-21T07:32:24;6.90;;;1.97;;
10041;SDS011;5061;49.068;12.058;2024-02-21T07:35:45;5.50;;;2.37;;
10041;SDS011;5061;49.068;12.058;2024-02-21T07:39:05;13.67;;;3.10;;
10041;SDS011;5061;49.068;12.058;2024-02-21T07:42:26;6.93;;;2.30;;
10041;SDS011;5061;49.068;12.058;2024-02-21T07:45:46;9.00;;;2.93;;
10041;SDS011;5061;49.068;12.058;2024-02-21T07:49:07;6.03;;;1.97;;
10041;SDS011;5061;49.068;12.058;2024-02-21T07:52:28;4.53;;;2.30;;
10041;SDS011;5061;49.068;12.058;2024-02-21T07:55:49;4.57;;;2.13;;
10041;SDS011;5061;49.068;12.058;2024-02-21T07:59:10;3.73;;;1.97;;
10041;SDS011;5061;49.068;12.058;2024-02-21T08:02:30;4.57;;;2.40;;
10041;SDS011;5061;49.068;12.058;2024-02-21T08:05:51;6.53;;;2.90;;
10041;SDS011;5061;49.068;12.058;2024-02-21T08:09:12;6.00;;;2.63;;
10041;SDS011;5061;49.068;12.058;2024-02-21T08:12:32;3.30;;;2.10;;
10041;SDS011;5061;49.068;12.058;2024-02-21T08:15:53;6.90;;;2.33;;
10041;SDS011;5061;49.068;12.058;2024-02-21T08:19:14;8.20;;;2.20;;
10041;SDS011;5061;49.068;12.058;2024-02-21T08:22:37;3.07;;;2.00;;
10041;SDS011;5061;49.068;12.058;2024-02-21T08:25:58;6.63;;;2.20;;
10041;SDS011;5061;49.068;12.058;2024-02-21T08:29:19;2.73;;;2.10;;
10041;SDS011;5061;49.068;12.058;2024-02-21T08:32:39;4.70;;;2.50;;
10041;SDS011;5061;49.068;12.058;2024-02-21T08:36:00;5.40;;;2.30;;
10041;SDS011;5061;49.068;12.058;2024-02-21T08:39:20;5.63;;;2.37;;
10041;SDS011;5061;49.068;12.058;2024-02-21T08:42:41;6.10;;;2.43;;
10041;SDS011;5061;49.068;12.058;2024-02-21T08:46:02;7.57;;;2.47;;
10041;SDS011;5061;49.068;12.058;2024-02-21T08:49:22;8.33;;;2.27;;
10041;SDS011;5061;49.068;12.058;2024-02-21T08:52:43;5.53;;;1.83;;
10041;SDS011;5061;49.068;12.058;2024-02-21T08:56:04;7.23;;;3.20;;
10041;SDS011;5061;49.068;12.058;2024-02-21T08:59:25;9.70;;;2.83;;
10041;SDS011;5061;49.068;12.058;2024-02-21T09:02:46;7.57;;;2.50;;
10041;SDS011;5061;49.068;12.058;2024-02-21T09:06:06;2.67;;;1.87;;
10041;SDS011;5061;49.068;12.058;2024-02-21T09:09:28;5.53;;;2.17;;
10041;SDS011;5061;49.068;12.058;2024-02-21T09:12:48;3.53;;;2.30;;
10041;SDS011;5061;49.068;12.058;2024-02-21T09:16:09;3.77;;;2.37;;
10041;SDS011;5061;49.068;12.058;2024-02-21T09:19:30;3.63;;;1.90;;
10041;SDS011;5061;49.068;12.058;2024-02-21T09:22:50;2.60;;;1.83;;
10041;SDS011;5061;49.068;12.058;2024-02-21T09:26:12;8.67;;;2.30;;
10041;SDS011;5061;49.068;12.058;2024-02-21T09:29:36;7.33;;;2.00;;
10041;SDS011;5061;49.068;12.058;2024-02-21T09:32:56;6.10;;;2.20;;
10041;SDS011;5061;49.068;12.058;2024-02-21T09:36:19;4.70;;;2.30;;
10041;SDS011;5061;49.068;12.058;2024-02-21T09:39:41;7.20;;;2.10;;
10041;SDS011;5061;49.068;12.058;2024-02-21T09:43:02;5.20;;;2.07;;
10041;SDS011;5061;49.068;12.058;2024-02-21T09:46:29;8.00;;;2.87;;
10041;SDS011;5061;49.068;12.058;2024-02-21T09:50:02;6.80;;;2.17;;
10041;SDS011;5061;49.068;12.058;2024-02-21T09:53:25;8.80;;;2.83;;
10041;SDS011;5061;49.068;12.058;2024-02-21T09:56:47;6.80;;;2.83;;
10041;SDS011;5061;49.068;12.058;2024-02-21T10:00:08;4.87;;;2.30;;
10041;SDS011;5061;49.068;12.058;2024-02-21T10:03:29;6.60;;;2.40;;
10041;SDS011;5061;49.068;12.058;2024-02-21T10:06:49;4.20;;;1.80;;
10041;SDS011;5061;49.068;12.058;2024-02-21T10:10:11;9.63;;;2.47;;
10041;SDS011;5061;49.068;12.058;2024-02-21T10:13:31;2.27;;;1.67;;
10041;SDS011;5061;49.068;12.058;2024-02-21T10:16:58;4.50;;;2.40;;
10041;SDS011;5061;49.068;12.058;2024-02-21T10:20:19;4.43;;;2.33;;
10041;SDS011;5061;49.068;12.058;2024-02-21T10:27:08;4.63;;;1.63;;
10041;SDS011;5061;49.068;12.058;2024-02-21T10:30:30;4.40;;;1.93;;
10041;SDS011;5061;49.068;12.058;2024-02-21T10:33:54;13.77;;;2.30;;
10041;SDS011;5061;49.068;12.058;2024-02-21T10:37:22;6.20;;;2.10;;
10041;SDS011;5061;49.068;12.058;2024-02-21T10:40:43;7.57;;;2.07;;
10041;SDS011;5061;49.068;12.058;2024-02-21T10:44:06;4.97;;;2.00;;
10041;SDS011;5061;49.068;12.058;2024-02-21T10:47:30;6.67;;;2.23;;
10041;SDS011;5061;49.068;12.058;2024-02-21T10:50:56;4.10;;;1.57;;
10041;SDS011;5061;49.068;12.058;2024-02-21T10:58:08;7.60;;;2.50;;
10041;SDS011;5061;49.068;12.058;2024-02-21T11:01:31;4.77;;;1.90;;
10041;SDS011;5061;49.068;12.058;2024-02-21T11:04:52;4.97;;;1.90;;
10041;SDS011;5061;49.068;12.058;2024-02-21T11:08:14;4.87;;;1.97;;
10041;SDS011;5061;49.068;12.058;2024-02-21T11:11:35;1.30;;;1.20;;
10041;SDS011;5061;49.068;12.058;2024-02-21T11:15:03;6.40;;;1.50;;
10041;SDS011;5061;49.068;12.058;2024-02-21T11:18:27;3.60;;;1.97;;
10041;SDS011;5061;49.068;12.058;2024-02-21T11:21:47;2.67;;;1.67;;
10041;SDS011;5061;49.068;12.058;2024-02-21T11:25:08;4.27;;;1.90;;
10041;SDS011;5061;49.068;12.058;2024-02-21T11:28:31;2.50;;;1.40;;
10041;SDS011;5061;49.068;12.058;2024-02-21T11:31:52;4.67;;;1.47;;
10041;SDS011;5061;49.068;12.058;2024-02-21T11:35:19;3.30;;;2.00;;
10041;SDS011;5061;49.068;12.058;2024-02-21T11:38:40;20.67;;;1.70;;
10041;SDS011;5061;49.068;12.058;2024-02-21T11:42:01;5.23;;;1.77;;
10041;SDS011;5061;49.068;12.058;2024-02-21T11:45:25;8.20;;;1.90;;
10041;SDS011;5061;49.068;12.058;2024-02-21T11:48:46;4.27;;;1.93;;
10041;SDS011;5061;49.068;12.058;2024-02-21T11:52:10;7.20;;;1.57;;
10041;SDS011;5061;49.068;12.058;2024-02-21T11:55:30;2.97;;;1.53;;
10041;SDS011;5061;49.068;12.058;2024-02-21T11:58:51;3.00;;;1.63;;
10041;SDS011;5061;49.068;12.058;2024-02-21T12:02:12;2.40;;;1.33;;
10041;SDS011;5061;49.068;12.058;2024-02-21T12:05:33;1.90;;;1.70;;
10041;SDS011;5061;49.068;12.058;2024-02-21T12:08:57;5.00;;;2.00;;
10041;SDS011;5061;49.068;12.058;2024-02-21T12:12:19;3.57;;;1.70;;
10041;SDS011;5061;49.068;12.058;2024-02-21T12:15:40;3.80;;;2.20;;
10041;SDS011;5061;49.068;12.058;2024-02-21T12:19:01;6.33;;;1.87;;
10041;SDS011;5061;49.068;12.058;2024-02-21T12:22:24;5.53;;;1.60;;
10041;SDS011;5061;49.068;12.058;2024-02-21T12:25:45;4.33;;;2.00;;
10041;SDS011;5061;49.068;12.058;2024-02-21T12:29:06;2.67;;;1.70;;
10041;SDS011;5061;49.068;12.058;2024-02-21T12:32:29;2.60;;;1.60;;
10041;SDS011;5061;49.068;12.058;2024-02-21T12:35:49;2.37;;;1.30;;
10041;SDS011;5061;49.068;12.058;2024-02-21T12:39:10;2.33;;;1.40;;
10041;SDS011;5061;49.068;12.058;2024-02-21T12:42:31;1.60;;;1.20;;
10041;SDS011;5061;49.068;12.058;2024-02-21T12:45:51;2.10;;;1.20;;
10041;SDS011;5061;49.068;12.058;2024-02-21T12:49:12;3.53;;;1.20;;
10041;SDS011;5061;49.068;12.058;2024-02-21T12:52:36;2.20;;;1.20;;
10041;SDS011;5061;49.068;12.058;2024-02-21T12:55:57;1.93;;;1.27;;
10041;SDS011;5061;49.068;12.058;2024-02-21T12:59:17;2.63;;;1.37;;
10041;SDS011;5061;49.068;12.058;2024-02-21T13:02:38;4.60;;;1.53;;
10041;SDS011;5061;49.068;12.058;2024-02-21T13:05:58;3.50;;;1.53;;
10041;SDS011;5061;49.068;12.058;2024-02-21T13:09:19;3.00;;;1.30;;
10041;SDS011;5061;49.068;12.058;2024-02-21T13:12:40;2.30;;;1.20;;
10041;SDS011;5061;49.068;12.058;2024-02-21T13:16:00;3.90;;;1.47;;
10041;SDS011;5061;49.068;12.058;2024-02-21T13:19:22;2.93;;;1.77;;
10041;SDS011;5061;49.068;12.058;2024-02-21T13:22:42;4.00;;;1.43;;
10041;SDS011;5061;49.068;12.058;2024-02-21T13:26:03;2.50;;;1.30;;
10041;SDS011;5061;49.068;12.058;2024-02-21T13:29:24;4.97;;;1.13;;
10041;SDS011;5061;49.068;12.058;2024-02-21T13:32:44;2.40;;;1.47;;
10041;SDS011;5061;49.068;12.058;2024-02-21T13:36:08;2.70;;;1.80;;
10041;SDS011;5061;49.068;12.058;2024-02-21T13:39:30;1.77;;;1.20;;
10041;SDS011;5061;49.068;12.058;2024-02-21T13:42:54;2.40;;;1.53;;
10041;SDS011;5061;49.068;12.058;2024-02-21T13:46:15;2.60;;;1.53;;
10041;SDS011;5061;49.068;12.058;2024-02-21T13:49:36;1.83;;;1.30;;
10041;SDS011;5061;49.068;12.058;2024-02-21T13:52:56;1.83;;;1.27;;
10041;SDS011;5061;49.068;12.058;2024-02-21T13:56:17;2.50;;;1.33;;
10041;SDS011;5061;49.068;12.058;2024-02-21T13:59:38;3.30;;;1.53;;
10041;SDS011;5061;49.068;12.058;2024-02-21T14:02:59;3.30;;;1.40;;
10041;SDS011;5061;49.068;12.058;2024-02-21T14:06:21;1.73;;;1.20;;
10041;SDS011;5061;49.068;12.058;2024-02-21T14:09:41;3.27;;;1.23;;
10041;SDS011;5061;49.068;12.058;2024-02-21T14:13:02;3.50;;;1.30;;
10041;SDS011;5061;49.068;12.058;2024-02-21T14:16:23;3.37;;;1.60;;
10041;SDS011;5061;49.068;12.058;2024-02-21T14:19:43;3.73;;;1.47;;
10041;SDS011;5061;49.068;12.058;2024-02-21T14:23:04;4.10;;;1.40;;
10041;SDS011;5061;49.068;12.058;2024-02-21T14:26:25;4.10;;;1.40;;
10041;SDS011;5061;49.068;12.058;2024-02-21T14:29:45;2.27;;;1.27;;
10041;SDS011;5061;49.068;12.058;2024-02-21T14:33:06;3.53;;;1.27;;
10041;SDS011;5061;49.068;12.058;2024-02-21T14:36:27;4.80;;;1.50;;
10041;SDS011;5061;49.068;12.058;2024-02-21T14:39:48;6.37;;;1.57;;
10041;SDS011;5061;49.068;12.058;2024-02-21T14:43:09;2.70;;;1.20;;
10041;SDS011;5061;49.068;12.058;2024-02-21T14:46:29;3.53;;;1.07;;
10041;SDS011;5061;49.068;12.058;2024-02-21T14:49:50;5.07;;;1.27;;
10041;SDS011;5061;49.068;12.058;2024-02-21T14:53:11;2.57;;;1.33;;
10041;SDS011;5061;49.068;12.058;2024-02-21T14:56:32;3.40;;;1.40;;
10041;SDS011;5061;49.068;12.058;2024-02-21T14:59:53;1.30;;;1.20;;
10041;SDS011;5061;49.068;12.058;2024-02-21T15:03:16;3.30;;;1.50;;
10041;SDS011;5061;49.068;12.058;2024-02-21T15:06:40;1.87;;;1.10;;
10041;SDS011;5061;49.068;12.058;2024-02-21T15:10:01;1.47;;;1.20;;
10041;SDS011;5061;49.068;12.058;2024-02-21T15:13:22;7.10;;;1.33;;
10041;SDS011;5061;49.068;12.058;2024-02-21T15:16:43;5.63;;;1.30;;
10041;SDS011;5061;49.068;12.058;2024-02-21T15:20:04;3.73;;;1.37;;
10041;SDS011;5061;49.068;12.058;2024-02-21T15:23:28;1.43;;;0.90;;
10041;SDS011;5061;49.068;12.058;2024-02-21T15:26:49;2.10;;;1.23;;
10041;SDS011;5061;49.068;12.058;2024-02-21T15:30:11;2.80;;;1.10;;
10041;SDS011;5061;49.068;12.058;2024-02-21T15:33:32;2.03;;;1.47;;
10041;SDS011;5061;49.068;12.058;2024-02-21T15:36:52;3.03;;;1.30;;
10041;SDS011;5061;49.068;12.058;2024-02-21T15:40:13;2.20;;;1.20;;
10041;SDS011;5061;49.068;12.058;2024-02-21T15:43:34;1.50;;;1.13;;
10041;SDS011;5061;49.068;12.058;2024-02-21T15:46:57;1.50;;;1.20;;
10041;SDS011;5061;49.068;12.058;2024-02-21T15:50:17;2.70;;;1.10;;
10041;SDS011;5061;49.068;12.058;2024-02-21T15:53:39;1.63;;;1.27;;
10041;SDS011;5061;49.068;12.058;2024-02-21T15:57:05;1.20;;;0.90;;
10041;SDS011;5061;49.068;12.058;2024-02-21T16:00:27;1.47;;;0.90;;
10041;SDS011;5061;49.068;12.058;2024-02-21T16:03:47;1.20;;;0.93;;
10041;SDS011;5061;49.068;12.058;2024-02-21T16:07:08;1.53;;;1.10;;
10041;SDS011;5061;49.068;12.058;2024-02-21T16:10:29;1.20;;;0.93;;
10041;SDS011;5061;49.068;12.058;2024-02-21T16:13:49;4.10;;;1.00;;
10041;SDS011;5061;49.068;12.058;2024-02-21T16:17:11;1.90;;;1.20;;
10041;SDS011;5061;49.068;12.058;2024-02-21T16:20:32;1.43;;;1.03;;
10041;SDS011;5061;49.068;12.058;2024-02-21T16:23:53;3.57;;;1.30;;
10041;SDS011;5061;49.068;12.058;2024-02-21T16:27:13;2.27;;;1.20;;
10041;SDS011;5061;49.068;12.058;2024-02-21T16:30:35;1.87;;;1.23;;
10041;SDS011;5061;49.068;12.058;2024-02-21T16:33:56;1.70;;;1.37;;
10041;SDS011;5061;49.068;12.058;2024-02-21T16:37:17;1.77;;;1.07;;
10041;SDS011;5061;49.068;12.058;2024-02-21T16:40:38;3.50;;;1.07;;
10041;SDS011;5061;49.068;12.058;2024-02-21T16:44:00;1.10;;;1.00;;
10041;SDS011;5061;49.068;12.058;2024-02-21T16:47:21;1.10;;;1.00;;
10041;SDS011;5061;49.068;12.058;2024-02-21T16:50:44;1.70;;;1.17;;
10041;SDS011;5061;49.068;12.058;2024-02-21T16:54:05;1.33;;;1.00;;
10041;SDS011;5061;49.068;12.058;2024-02-21T16:57:28;1.00;;;0.90;;
10041;SDS011;5061;49.068;12.058;2024-02-21T17:00:48;2.30;;;1.17;;
10041;SDS011;5061;49.068;12.058;2024-02-21T17:04:09;1.63;;;1.10;;
10041;SDS011;5061;49.068;12.058;2024-02-21T17:07:30;1.40;;;0.93;;
10041;SDS011;5061;49.068;12.058;2024-02-21T17:10:51;1.97;;;1.10;;
10041;SDS011;5061;49.068;12.058;2024-02-21T17:14:11;1.47;;;1.00;;
10041;SDS011;5061;49.068;12.058;2024-02-21T17:17:33;6.67;;;1.30;;
10041;SDS011;5061;49.068;12.058;2024-02-21T17:20:55;3.33;;;1.13;;
10041;SDS011;5061;49.068;12.058;2024-02-21T17:24:15;1.47;;;0.90;;
10041;SDS011;5061;49.068;12.058;2024-02-21T17:27:36;1.13;;;1.03;;
10041;SDS011;5061;49.068;12.058;2024-02-21T17:30:57;1.33;;;0.90;;
10041;SDS011;5061;49.068;12.058;2024-02-21T17:34:18;1.13;;;1.03;;
10041;SDS011;5061;49.068;12.058;2024-02-21T17:37:40;2.00;;;1.20;;
10041;SDS011;5061;49.068;12.058;2024-02-21T17:41:01;1.93;;;1.13;;
10041;SDS011;5061;49.068;12.058;2024-02-21T17:44:22;1.43;;;1.07;;
10041;SDS011;5061;49.068;12.058;2024-02-21T17:47:44;8.23;;;1.30;;
10041;SDS011;5061;49.068;12.058;2024-02-21T17:51:06;1.30;;;0.90;;
10041;SDS011;5061;49.068;12.058;2024-02-21T17:54:27;2.97;;;1.97;;
10041;SDS011;5061;49.068;12.058;2024-02-21T17:57:48;4.70;;;2.03;;
10041;SDS011;5061;49.068;12.058;2024-02-21T18:01:09;2.07;;;1.70;;
10041;SDS011;5061;49.068;12.058;2024-02-21T18:04:30;2.90;;;2.00;;
10041;SDS011;5061;49.068;12.058;2024-02-21T18:07:51;1.67;;;1.47;;
10041;SDS011;5061;49.068;12.058;2024-02-21T18:11:12;2.53;;;1.83;;
10041;SDS011;5061;49.068;12.058;2024-02-21T18:14:32;4.90;;;2.60;;
10041;SDS011;5061;49.068;12.058;2024-02-21T18:17:53;3.80;;;2.53;;
10041;SDS011;5061;49.068;12.058;2024-02-21T18:21:13;6.07;;;2.93;;
10041;SDS011;5061;49.068;12.058;2024-02-21T18:24:34;2.43;;;2.07;;
10041;SDS011;5061;49.068;12.058;2024-02-21T18:27:55;3.00;;;2.67;;
10041;SDS011;5061;49.068;12.058;2024-02-21T18:31:16;3.93;;;2.07;;
10041;SDS011;5061;49.068;12.058;2024-02-21T18:34:37;3.37;;;2.50;;
10041;SDS011;5061;49.068;12.058;2024-02-21T18:37:58;3.70;;;2.00;;
10041;SDS011;5061;49.068;12.058;2024-02-21T18:41:18;4.37;;;2.40;;
10041;SDS011;5061;49.068;12.058;2024-02-21T18:44:39;5.67;;;1.70;;
10041;SDS011;5061;49.068;12.058;2024-02-21T18:48:00;2.40;;;2.07;;
10041;SDS011;5061;49.068;12.058;2024-02-21T18:51:20;4.17;;;2.73;;
10041;SDS011;5061;49.068;12.058;2024-02-21T18:54:41;3.90;;;1.73;;
10041;SDS011;5061;49.068;12.058;2024-02-21T18:58:01;3.53;;;2.27;;
10041;SDS011;5061;49.068;12.058;2024-02-21T19:01:23;2.90;;;2.30;;
10041;SDS011;5061;49.068;12.058;2024-02-21T19:04:44;5.37;;;2.40;;
10041;SDS011;5061;49.068;12.058;2024-02-21T19:08:04;4.30;;;2.53;;
10041;SDS011;5061;49.068;12.058;2024-02-21T19:11:25;7.10;;;3.20;;
10041;SDS011;5061;49.068;12.058;2024-02-21T19:14:46;6.30;;;2.73;;
10041;SDS011;5061;49.068;12.058;2024-02-21T19:18:07;3.63;;;2.53;;
10041;SDS011;5061;49.068;12.058;2024-02-21T19:21:27;4.30;;;2.33;;
10041;SDS011;5061;49.068;12.058;2024-02-21T19:24:48;2.73;;;1.63;;
10041;SDS011;5061;49.068;12.058;2024-02-21T19:28:09;2.13;;;1.67;;
10041;SDS011;5061;49.068;12.058;2024-02-21T19:31:33;3.90;;;1.40;;
10041;SDS011;5061;49.068;12.058;2024-02-21T19:34:53;5.10;;;2.53;;
10041;SDS011;5061;49.068;12.058;2024-02-21T19:38:14;2.40;;;1.93;;
10041;SDS011;5061;49.068;12.058;2024-02-21T19:41:34;5.50;;;2.70;;
10041;SDS011;5061;49.068;12.058;2024-02-21T19:44:55;3.37;;;2.13;;
10041;SDS011;5061;49.068;12.058;2024-02-21T19:48:16;3.37;;;2.10;;
10041;SDS011;5061;49.068;12.058;2024-02-21T19:51:38;4.40;;;2.40;;
10041;SDS011;5061;49.068;12.058;2024-02-21T19:54:59;2.90;;;2.00;;
10041;SDS011;5061;49.068;12.058;2024-02-21T19:58:19;3.33;;;2.43;;
10041;SDS011;5061;49.068;12.058;2024-02-21T20:01:40;4.03;;;2.00;;
10041;SDS011;5061;49.068;12.058;2024-02-21T20:05:01;2.00;;;1.53;;
10041;SDS011;5061;49.068;12.058;2024-02-21T20:08:22;3.07;;;2.13;;
10041;SDS011;5061;49.068;12.058;2024-02-21T20:11:43;2.30;;;1.83;;
10041;SDS011;5061;49.068;12.058;2024-02-21T20:15:04;4.63;;;2.00;;
10041;SDS011;5061;49.068;12.058;2024-02-21T20:18:26;5.67;;;2.90;;
10041;SDS011;5061;49.068;12.058;2024-02-21T20:21:47;4.63;;;2.50;;